sensor_id;sensor_type;location;lat;lon;timestamp;pressure;altitude;pressure_sealevel;temperature;humidity
11395;BME280;5753;54.402;10.220;2023-01-28T00:01:10;103006.41;;;12.80;35.80
11395;BME280;5753;54.402;10.220;2023-01-28T00:03:37;103006.28;;;12.98;35.66
11395;BME280;5753;54.402;10.220;2023-01-28T00:06:05;103005.66;;;13.25;35.48
11395;BME280;5753;54.402;10.220;2023-01-28T00:08:32;103009.13;;;12.83;35.96
11395;BME280;5753;54.402;10.220;2023-01-28T00:11:02;103002.47;;;13.11;35.45
11395;BME280;5753;54.402;10.220;2023-01-28T00:13:30;103009.03;;;13.23;35.46
11395;BME280;5753;54.402;10.220;2023-01-28T00:15:58;103016.00;;;13.04;35.81
11395;BME280;5753;54.402;10.220;2023-01-28T00:18:26;103015.34;;;13.09;35.67
11395;BME280;5753;54.402;10.220;2023-01-28T00:21:03;103011.06;;;13.10;35.92
11395;BME280;5753;54.402;10.220;2023-01-28T00:23:32;103018.63;;;13.05;35.89
11395;BME280;5753;54.402;10.220;2023-01-28T00:26:00;103015.47;;;13.12;35.98
11395;BME280;5753;54.402;10.220;2023-01-28T00:28:28;103021.44;;;12.89;36.28
11395;BME280;5753;54.402;10.220;2023-01-28T00:30:54;103018.88;;;13.11;35.68
11395;BME280;5753;54.402;10.220;2023-01-28T00:33:20;103010.84;;;13.25;35.66
11395;BME280;5753;54.402;10.220;2023-01-28T00:35:46;103016.03;;;13.25;35.85
11395;BME280;5753;54.402;10.220;2023-01-28T00:38:13;103007.22;;;13.21;36.11
11395;BME280;5753;54.402;10.220;2023-01-28T00:40:40;103016.88;;;12.83;36.27
11395;BME280;5753;54.402;10.220;2023-01-28T00:43:06;103006.69;;;12.27;37.07
11395;BME280;5753;54.402;10.220;2023-01-28T00:45:32;103009.50;;;11.38;38.52
11395;BME280;5753;54.402;10.220;2023-01-28T00:47:58;103003.28;;;12.28;37.01
11395;BME280;5753;54.402;10.220;2023-01-28T00:50:24;103002.53;;;12.71;36.87
11395;BME280;5753;54.402;10.220;2023-01-28T00:52:50;103000.88;;;12.73;36.51
11395;BME280;5753;54.402;10.220;2023-01-28T00:55:17;102999.69;;;12.24;37.26
11395;BME280;5753;54.402;10.220;2023-01-28T00:57:43;102982.63;;;13.11;35.87
11395;BME280;5753;54.402;10.220;2023-01-28T01:00:09;102990.22;;;12.25;37.01
11395;BME280;5753;54.402;10.220;2023-01-28T01:02:36;102995.94;;;12.37;37.12
11395;BME280;5753;54.402;10.220;2023-01-28T01:05:02;103004.31;;;11.75;37.63
11395;BME280;5753;54.402;10.220;2023-01-28T01:07:29;103008.88;;;11.98;36.99
11395;BME280;5753;54.402;10.220;2023-01-28T01:10:16;103013.09;;;12.16;36.91
11395;BME280;5753;54.402;10.220;2023-01-28T01:12:46;103013.69;;;11.00;39.22
11395;BME280;5753;54.402;10.220;2023-01-28T01:15:13;103009.41;;;11.01;38.64
11395;BME280;5753;54.402;10.220;2023-01-28T01:17:42;103005.81;;;10.63;39.42
11395;BME280;5753;54.402;10.220;2023-01-28T01:20:14;103004.06;;;11.87;37.58
11395;BME280;5753;54.402;10.220;2023-01-28T01:22:40;103014.59;;;11.01;38.89
11395;BME280;5753;54.402;10.220;2023-01-28T01:25:07;103015.84;;;10.08;40.46
11395;BME280;5753;54.402;10.220;2023-01-28T01:27:33;103010.25;;;10.66;40.43
11395;BME280;5753;54.402;10.220;2023-01-28T01:29:59;103005.00;;;10.98;39.24
11395;BME280;5753;54.402;10.220;2023-01-28T01:32:29;103003.38;;;11.18;38.62
11395;BME280;5753;54.402;10.220;2023-01-28T01:34:56;102995.72;;;10.01;40.30
11395;BME280;5753;54.402;10.220;2023-01-28T01:37:22;102993.34;;;10.38;40.50
11395;BME280;5753;54.402;10.220;2023-01-28T01:39:49;102985.88;;;12.24;36.76
11395;BME280;5753;54.402;10.220;2023-01-28T01:42:15;102987.66;;;11.49;38.20
11395;BME280;5753;54.402;10.220;2023-01-28T01:45:09;102984.53;;;11.76;37.89
11395;BME280;5753;54.402;10.220;2023-01-28T01:47:47;102987.91;;;11.00;39.24
11395;BME280;5753;54.402;10.220;2023-01-28T01:50:38;102977.53;;;11.54;38.03
11395;BME280;5753;54.402;10.220;2023-01-28T01:53:13;102971.97;;;11.09;38.74
11395;BME280;5753;54.402;10.220;2023-01-28T01:55:44;102979.19;;;10.98;39.18
11395;BME280;5753;54.402;10.220;2023-01-28T01:58:15;102976.19;;;10.89;38.93
11395;BME280;5753;54.402;10.220;2023-01-28T02:00:43;102975.72;;;11.16;38.25
11395;BME280;5753;54.402;10.220;2023-01-28T02:03:10;102968.16;;;10.33;39.88
11395;BME280;5753;54.402;10.220;2023-01-28T02:05:38;102974.41;;;10.54;39.79
11395;BME280;5753;54.402;10.220;2023-01-28T02:08:04;102978.97;;;10.42;39.50
11395;BME280;5753;54.402;10.220;2023-01-28T02:10:49;102980.53;;;10.40;39.90
11395;BME280;5753;54.402;10.220;2023-01-28T02:13:19;102969.91;;;9.22;42.82
11395;BME280;5753;54.402;10.220;2023-01-28T02:15:48;102970.16;;;10.55;40.10
11395;BME280;5753;54.402;10.220;2023-01-28T02:18:14;102976.84;;;9.70;41.47
11395;BME280;5753;54.402;10.220;2023-01-28T02:31:53;102971.56;;;9.99;40.96
11395;BME280;5753;54.402;10.220;2023-01-28T02:34:51;102957.75;;;10.48;39.94
11395;BME280;5753;54.402;10.220;2023-01-28T02:37:33;102964.63;;;10.47;39.46
11395;BME280;5753;54.402;10.220;2023-01-28T02:40:12;102970.44;;;10.27;40.10
11395;BME280;5753;54.402;10.220;2023-01-28T02:42:41;102965.84;;;9.41;41.04
11395;BME280;5753;54.402;10.220;2023-01-28T02:45:29;102967.84;;;10.27;40.41
11395;BME280;5753;54.402;10.220;2023-01-28T02:48:16;102970.41;;;10.10;40.68
11395;BME280;5753;54.402;10.220;2023-01-28T02:51:01;102969.59;;;9.79;40.78
11395;BME280;5753;54.402;10.220;2023-01-28T02:53:40;102973.16;;;9.97;40.71
11395;BME280;5753;54.402;10.220;2023-01-28T02:56:43;102967.13;;;10.29;40.36
11395;BME280;5753;54.402;10.220;2023-01-28T02:59:44;102971.94;;;8.52;42.76
11395;BME280;5753;54.402;10.220;2023-01-28T03:02:48;102972.09;;;8.99;43.24
11395;BME280;5753;54.402;10.220;2023-01-28T03:05:36;102974.16;;;9.21;42.70
11395;BME280;5753;54.402;10.220;2023-01-28T03:08:05;102963.81;;;10.16;40.24
11395;BME280;5753;54.402;10.220;2023-01-28T03:10:55;102968.09;;;9.35;41.39
11395;BME280;5753;54.402;10.220;2023-01-28T03:13:41;102964.53;;;9.48;41.76
11395;BME280;5753;54.402;10.220;2023-01-28T03:16:29;102961.41;;;9.70;41.36
11395;BME280;5753;54.402;10.220;2023-01-28T03:19:16;102961.25;;;8.46;44.37
11395;BME280;5753;54.402;10.220;2023-01-28T03:22:01;102950.81;;;9.02;42.99
11395;BME280;5753;54.402;10.220;2023-01-28T03:24:50;102958.44;;;9.00;43.24
11395;BME280;5753;54.402;10.220;2023-01-28T03:27:58;102959.47;;;9.66;41.83
11395;BME280;5753;54.402;10.220;2023-01-28T03:31:07;102951.09;;;9.86;40.65
11395;BME280;5753;54.402;10.220;2023-01-28T03:33:54;102950.03;;;10.15;39.95
11395;BME280;5753;54.402;10.220;2023-01-28T03:36:40;102955.06;;;9.96;40.16
11395;BME280;5753;54.402;10.220;2023-01-28T03:39:23;102953.94;;;10.23;39.90
11395;BME280;5753;54.402;10.220;2023-01-28T03:41:59;102939.66;;;9.49;41.40
11395;BME280;5753;54.402;10.220;2023-01-28T03:44:27;102936.13;;;9.79;40.77
11395;BME280;5753;54.402;10.220;2023-01-28T03:47:12;102941.78;;;9.25;41.54
11395;BME280;5753;54.402;10.220;2023-01-28T03:49:47;102948.34;;;9.51;41.30
11395;BME280;5753;54.402;10.220;2023-01-28T03:52:25;102953.91;;;8.81;42.92
11395;BME280;5753;54.402;10.220;2023-01-28T03:54:51;102941.59;;;9.69;41.21
11395;BME280;5753;54.402;10.220;2023-01-28T03:57:20;102944.59;;;8.83;43.06
11395;BME280;5753;54.402;10.220;2023-01-28T03:59:47;102945.19;;;7.78;44.12
11395;BME280;5753;54.402;10.220;2023-01-28T04:02:15;102959.34;;;7.86;45.94
11395;BME280;5753;54.402;10.220;2023-01-28T04:04:42;102953.59;;;9.21;42.71
11395;BME280;5753;54.402;10.220;2023-01-28T04:07:09;102960.59;;;9.87;40.82
11395;BME280;5753;54.402;10.220;2023-01-28T04:09:36;102970.75;;;8.91;43.31
11395;BME280;5753;54.402;10.220;2023-01-28T04:12:03;102958.56;;;9.65;41.57
11395;BME280;5753;54.402;10.220;2023-01-28T04:14:30;102961.88;;;9.46;41.60
11395;BME280;5753;54.402;10.220;2023-01-28T04:16:57;102973.66;;;8.97;43.19
11395;BME280;5753;54.402;10.220;2023-01-28T04:19:23;102964.84;;;9.23;42.65
11395;BME280;5753;54.402;10.220;2023-01-28T04:21:50;102965.91;;;9.90;40.59
11395;BME280;5753;54.402;10.220;2023-01-28T04:24:19;102972.91;;;10.09;40.26
11395;BME280;5753;54.402;10.220;2023-01-28T04:26:45;102968.22;;;10.18;39.84
11395;BME280;5753;54.402;10.220;2023-01-28T04:29:11;102969.59;;;8.42;43.37
11395;BME280;5753;54.402;10.220;2023-01-28T04:31:41;102963.88;;;9.21;41.93
11395;BME280;5753;54.402;10.220;2023-01-28T04:34:07;102963.25;;;9.25;41.78
11395;BME280;5753;54.402;10.220;2023-01-28T04:36:34;102962.19;;;9.85;40.65
11395;BME280;5753;54.402;10.220;2023-01-28T04:39:00;102961.72;;;9.76;40.97
11395;BME280;5753;54.402;10.220;2023-01-28T04:41:26;102956.72;;;8.27;44.31
11395;BME280;5753;54.402;10.220;2023-01-28T04:43:52;102960.38;;;8.45;43.41
11395;BME280;5753;54.402;10.220;2023-01-28T04:46:18;102956.50;;;9.27;42.52
11395;BME280;5753;54.402;10.220;2023-01-28T04:48:45;102944.00;;;9.66;41.31
11395;BME280;5753;54.402;10.220;2023-01-28T04:51:11;102945.94;;;9.23;42.15
11395;BME280;5753;54.402;10.220;2023-01-28T04:53:37;102947.22;;;9.62;41.17
11395;BME280;5753;54.402;10.220;2023-01-28T04:56:03;102936.31;;;8.58;43.09
11395;BME280;5753;54.402;10.220;2023-01-28T04:58:29;102928.56;;;7.86;44.70
11395;BME280;5753;54.402;10.220;2023-01-28T05:00:56;102922.94;;;8.06;45.06
11395;BME280;5753;54.402;10.220;2023-01-28T05:03:23;102915.28;;;8.50;43.62
11395;BME280;5753;54.402;10.220;2023-01-28T05:05:50;102911.84;;;8.65;43.17
11395;BME280;5753;54.402;10.220;2023-01-28T05:08:16;102904.84;;;9.08;42.77
11395;BME280;5753;54.402;10.220;2023-01-28T05:10:43;102900.16;;;9.01;42.36
11395;BME280;5753;54.402;10.220;2023-01-28T05:13:09;102894.63;;;8.19;44.27
11395;BME280;5753;54.402;10.220;2023-01-28T05:15:36;102887.25;;;9.15;41.88
11395;BME280;5753;54.402;10.220;2023-01-28T05:18:02;102870.69;;;9.27;41.61
11395;BME280;5753;54.402;10.220;2023-01-28T05:20:28;102869.00;;;9.27;41.34
11395;BME280;5753;54.402;10.220;2023-01-28T05:22:54;102886.25;;;7.94;43.59
11395;BME280;5753;54.402;10.220;2023-01-28T05:25:20;102895.31;;;8.76;42.86
11395;BME280;5753;54.402;10.220;2023-01-28T05:27:50;102886.72;;;9.54;41.40
11395;BME280;5753;54.402;10.220;2023-01-28T05:30:18;102873.88;;;9.54;41.45
11395;BME280;5753;54.402;10.220;2023-01-28T05:32:44;102879.75;;;9.04;42.57
11395;BME280;5753;54.402;10.220;2023-01-28T05:35:10;102862.94;;;8.34;44.06
11395;BME280;5753;54.402;10.220;2023-01-28T05:37:37;102865.59;;;8.81;42.92
11395;BME280;5753;54.402;10.220;2023-01-28T05:40:03;102863.69;;;9.40;41.52
11395;BME280;5753;54.402;10.220;2023-01-28T05:42:29;102865.41;;;9.56;41.14
11395;BME280;5753;54.402;10.220;2023-01-28T05:44:55;102867.16;;;8.48;43.98
11395;BME280;5753;54.402;10.220;2023-01-28T05:47:22;102860.72;;;7.68;45.07
11395;BME280;5753;54.402;10.220;2023-01-28T05:49:48;102869.56;;;8.91;43.44
11395;BME280;5753;54.402;10.220;2023-01-28T05:52:14;102873.38;;;8.37;44.73
11395;BME280;5753;54.402;10.220;2023-01-28T05:54:40;102870.50;;;8.76;43.77
11395;BME280;5753;54.402;10.220;2023-01-28T05:57:06;102880.44;;;7.00;47.39
11395;BME280;5753;54.402;10.220;2023-01-28T05:59:32;102875.84;;;8.50;43.56
11395;BME280;5753;54.402;10.220;2023-01-28T06:01:59;102883.47;;;8.34;43.97
11395;BME280;5753;54.402;10.220;2023-01-28T06:04:25;102883.09;;;8.72;44.08
11395;BME280;5753;54.402;10.220;2023-01-28T06:06:52;102896.34;;;7.91;45.94
11395;BME280;5753;54.402;10.220;2023-01-28T06:09:18;102889.31;;;8.46;44.16
11395;BME280;5753;54.402;10.220;2023-01-28T06:11:45;102893.84;;;7.78;45.92
11395;BME280;5753;54.402;10.220;2023-01-28T06:14:11;102899.31;;;8.12;45.11
11395;BME280;5753;54.402;10.220;2023-01-28T06:16:37;102902.78;;;8.42;44.28
11395;BME280;5753;54.402;10.220;2023-01-28T06:19:03;102912.53;;;8.62;43.77
11395;BME280;5753;54.402;10.220;2023-01-28T06:21:30;102926.81;;;8.00;44.93
11395;BME280;5753;54.402;10.220;2023-01-28T06:23:56;102929.66;;;7.62;46.12
11395;BME280;5753;54.402;10.220;2023-01-28T06:26:22;102928.75;;;6.80;47.68
11395;BME280;5753;54.402;10.220;2023-01-28T06:28:49;102920.22;;;8.18;45.35
11395;BME280;5753;54.402;10.220;2023-01-28T06:31:15;102922.22;;;6.99;47.08
11395;BME280;5753;54.402;10.220;2023-01-28T06:33:41;102922.13;;;7.65;46.21
11395;BME280;5753;54.402;10.220;2023-01-28T06:36:08;102914.28;;;8.19;44.72
11395;BME280;5753;54.402;10.220;2023-01-28T06:38:34;102916.19;;;8.97;43.03
11395;BME280;5753;54.402;10.220;2023-01-28T06:41:01;102917.84;;;8.65;43.24
11395;BME280;5753;54.402;10.220;2023-01-28T06:43:27;102921.22;;;8.35;44.28
11395;BME280;5753;54.402;10.220;2023-01-28T06:45:58;102916.09;;;8.35;44.43
11395;BME280;5753;54.402;10.220;2023-01-28T06:48:25;102916.22;;;7.52;46.04
11395;BME280;5753;54.402;10.220;2023-01-28T06:50:52;102916.69;;;8.45;43.90
11395;BME280;5753;54.402;10.220;2023-01-28T06:53:18;102912.13;;;8.86;43.44
11395;BME280;5753;54.402;10.220;2023-01-28T06:55:44;102906.00;;;7.95;45.32
11395;BME280;5753;54.402;10.220;2023-01-28T06:58:11;102917.09;;;8.24;43.96
11395;BME280;5753;54.402;10.220;2023-01-28T07:00:37;102920.41;;;8.50;44.19
11395;BME280;5753;54.402;10.220;2023-01-28T07:03:04;102919.31;;;8.17;45.68
11395;BME280;5753;54.402;10.220;2023-01-28T07:05:30;102920.66;;;8.26;44.44
11395;BME280;5753;54.402;10.220;2023-01-28T07:07:56;102924.72;;;8.22;44.41
11395;BME280;5753;54.402;10.220;2023-01-28T07:10:22;102924.81;;;8.24;45.61
11395;BME280;5753;54.402;10.220;2023-01-28T07:12:49;102924.59;;;8.63;44.30
11395;BME280;5753;54.402;10.220;2023-01-28T07:15:15;102931.78;;;8.69;43.97
11395;BME280;5753;54.402;10.220;2023-01-28T07:17:41;102926.53;;;8.38;44.62
11395;BME280;5753;54.402;10.220;2023-01-28T07:20:09;102924.78;;;8.66;43.61
11395;BME280;5753;54.402;10.220;2023-01-28T07:22:37;102921.56;;;8.41;44.49
11395;BME280;5753;54.402;10.220;2023-01-28T07:25:06;102927.94;;;8.47;45.28
11395;BME280;5753;54.402;10.220;2023-01-28T07:27:32;102926.94;;;9.52;43.28
11395;BME280;5753;54.402;10.220;2023-01-28T07:29:58;102926.53;;;10.09;41.62
11395;BME280;5753;54.402;10.220;2023-01-28T07:32:25;102929.72;;;9.40;43.12
11395;BME280;5753;54.402;10.220;2023-01-28T07:34:54;102923.69;;;8.77;44.04
11395;BME280;5753;54.402;10.220;2023-01-28T07:37:20;102927.91;;;8.33;44.71
11395;BME280;5753;54.402;10.220;2023-01-28T07:39:46;102930.34;;;9.51;42.99
11395;BME280;5753;54.402;10.220;2023-01-28T07:42:13;102934.94;;;9.25;43.97
11395;BME280;5753;54.402;10.220;2023-01-28T07:44:39;102929.19;;;8.69;44.56
11395;BME280;5753;54.402;10.220;2023-01-28T07:47:06;102931.44;;;8.94;44.44
11395;BME280;5753;54.402;10.220;2023-01-28T07:49:35;102937.50;;;8.79;44.23
11395;BME280;5753;54.402;10.220;2023-01-28T07:52:02;102939.91;;;9.69;43.18
11395;BME280;5753;54.402;10.220;2023-01-28T07:54:28;102943.44;;;7.92;46.03
11395;BME280;5753;54.402;10.220;2023-01-28T07:56:54;102946.59;;;9.35;43.57
11395;BME280;5753;54.402;10.220;2023-01-28T07:59:22;102935.41;;;8.72;43.78
11395;BME280;5753;54.402;10.220;2023-01-28T08:01:48;102940.00;;;7.63;46.53
11395;BME280;5753;54.402;10.220;2023-01-28T08:04:14;102942.84;;;8.68;44.56
11395;BME280;5753;54.402;10.220;2023-01-28T08:06:40;102948.22;;;8.00;45.71
11395;BME280;5753;54.402;10.220;2023-01-28T08:09:07;102958.38;;;9.15;43.79
11395;BME280;5753;54.402;10.220;2023-01-28T08:11:36;102962.75;;;9.63;43.17
11395;BME280;5753;54.402;10.220;2023-01-28T08:14:02;102979.50;;;6.73;47.98
11395;BME280;5753;54.402;10.220;2023-01-28T08:16:28;102975.50;;;8.26;45.76
11395;BME280;5753;54.402;10.220;2023-01-28T08:18:54;102969.34;;;9.27;43.33
11395;BME280;5753;54.402;10.220;2023-01-28T08:21:21;102961.06;;;9.80;42.91
11395;BME280;5753;54.402;10.220;2023-01-28T08:23:47;102960.41;;;9.52;42.76
11395;BME280;5753;54.402;10.220;2023-01-28T08:26:13;102955.22;;;8.90;44.02
11395;BME280;5753;54.402;10.220;2023-01-28T08:28:40;102961.22;;;9.67;42.66
11395;BME280;5753;54.402;10.220;2023-01-28T08:31:06;102965.91;;;9.90;43.16
11395;BME280;5753;54.402;10.220;2023-01-28T08:33:32;102962.13;;;10.66;41.29
11395;BME280;5753;54.402;10.220;2023-01-28T08:36:04;102987.69;;;9.64;43.02
11395;BME280;5753;54.402;10.220;2023-01-28T08:38:31;102986.34;;;10.36;41.24
11395;BME280;5753;54.402;10.220;2023-01-28T08:40:57;102977.66;;;9.69;43.67
11395;BME280;5753;54.402;10.220;2023-01-28T08:43:25;102983.44;;;9.81;42.77
11395;BME280;5753;54.402;10.220;2023-01-28T08:45:51;102983.44;;;9.34;43.86
11395;BME280;5753;54.402;10.220;2023-01-28T08:48:18;102987.97;;;10.34;41.64
11395;BME280;5753;54.402;10.220;2023-01-28T08:50:45;102978.56;;;10.68;41.09
11395;BME280;5753;54.402;10.220;2023-01-28T08:53:16;102970.88;;;9.87;42.53
11395;BME280;5753;54.402;10.220;2023-01-28T08:55:43;102982.06;;;9.24;44.11
11395;BME280;5753;54.402;10.220;2023-01-28T08:58:12;102974.19;;;9.68;43.32
11395;BME280;5753;54.402;10.220;2023-01-28T09:00:39;102969.13;;;10.19;43.27
11395;BME280;5753;54.402;10.220;2023-01-28T09:03:05;102975.88;;;10.49;42.38
11395;BME280;5753;54.402;10.220;2023-01-28T09:05:33;102976.84;;;9.86;43.44
11395;BME280;5753;54.402;10.220;2023-01-28T09:08:05;102971.44;;;9.18;44.81
11395;BME280;5753;54.402;10.220;2023-01-28T09:10:32;102979.75;;;9.45;44.43
11395;BME280;5753;54.402;10.220;2023-01-28T09:12:58;102976.81;;;10.85;41.49
11395;BME280;5753;54.402;10.220;2023-01-28T09:15:24;102960.44;;;10.67;41.97
11395;BME280;5753;54.402;10.220;2023-01-28T09:17:56;102946.72;;;8.91;45.74
11395;BME280;5753;54.402;10.220;2023-01-28T09:20:23;102941.69;;;8.48;46.72
11395;BME280;5753;54.402;10.220;2023-01-28T09:22:50;102955.75;;;9.61;44.99
11395;BME280;5753;54.402;10.220;2023-01-28T09:25:16;102941.88;;;10.56;43.36
11395;BME280;5753;54.402;10.220;2023-01-28T09:27:42;102938.69;;;10.12;43.52
11395;BME280;5753;54.402;10.220;2023-01-28T09:30:09;102941.81;;;9.10;46.19
11395;BME280;5753;54.402;10.220;2023-01-28T09:32:36;102931.22;;;9.20;45.76
11395;BME280;5753;54.402;10.220;2023-01-28T09:35:02;102945.38;;;9.12;46.39
11395;BME280;5753;54.402;10.220;2023-01-28T09:37:29;102948.84;;;9.76;44.50
11395;BME280;5753;54.402;10.220;2023-01-28T09:39:55;102966.03;;;9.13;46.71
11395;BME280;5753;54.402;10.220;2023-01-28T09:42:31;102951.72;;;10.47;43.95
11395;BME280;5753;54.402;10.220;2023-01-28T09:45:14;102950.84;;;9.49;45.55
11395;BME280;5753;54.402;10.220;2023-01-28T09:47:49;102950.41;;;9.10;46.30
11395;BME280;5753;54.402;10.220;2023-01-28T09:52:50;102947.66;;;9.38;45.83
11395;BME280;5753;54.402;10.220;2023-01-28T09:55:29;102934.88;;;8.63;47.21
11395;BME280;5753;54.402;10.220;2023-01-28T09:57:56;102938.59;;;9.45;45.94
11395;BME280;5753;54.402;10.220;2023-01-28T10:00:42;102946.28;;;10.08;44.97
11395;BME280;5753;54.402;10.220;2023-01-28T10:06:20;102916.72;;;9.06;47.51
11395;BME280;5753;54.402;10.220;2023-01-28T10:11:45;102921.25;;;9.57;45.74
11395;BME280;5753;54.402;10.220;2023-01-28T10:17:16;102914.84;;;8.58;47.86
11395;BME280;5753;54.402;10.220;2023-01-28T10:23:00;102907.97;;;9.50;46.54
11395;BME280;5753;54.402;10.220;2023-01-28T10:25:30;102885.00;;;8.91;47.45
11395;BME280;5753;54.402;10.220;2023-01-28T10:27:57;102880.69;;;8.75;48.72
11395;BME280;5753;54.402;10.220;2023-01-28T10:30:29;102882.31;;;9.04;47.19
11395;BME280;5753;54.402;10.220;2023-01-28T10:33:04;102871.09;;;9.34;47.39
11395;BME280;5753;54.402;10.220;2023-01-28T10:35:36;102874.34;;;9.63;46.89
11395;BME280;5753;54.402;10.220;2023-01-28T10:38:06;102883.50;;;10.58;45.09
11395;BME280;5753;54.402;10.220;2023-01-28T10:40:34;102864.97;;;8.85;48.29
11395;BME280;5753;54.402;10.220;2023-01-28T10:43:00;102861.53;;;9.81;46.71
11395;BME280;5753;54.402;10.220;2023-01-28T10:45:29;102854.63;;;9.63;47.45
11395;BME280;5753;54.402;10.220;2023-01-28T10:50:30;102856.63;;;9.36;47.83
11395;BME280;5753;54.402;10.220;2023-01-28T10:52:59;102846.59;;;10.42;45.43
11395;BME280;5753;54.402;10.220;2023-01-28T10:57:57;102844.03;;;11.33;43.88
11395;BME280;5753;54.402;10.220;2023-01-28T11:00:26;102854.03;;;9.85;47.16
11395;BME280;5753;54.402;10.220;2023-01-28T11:02:56;102851.75;;;9.91;47.21
11395;BME280;5753;54.402;10.220;2023-01-28T11:05:29;102854.91;;;10.89;44.64
11395;BME280;5753;54.402;10.220;2023-01-28T11:08:05;102854.63;;;10.65;45.32
11395;BME280;5753;54.402;10.220;2023-01-28T11:10:38;102845.78;;;10.78;45.25
11395;BME280;5753;54.402;10.220;2023-01-28T11:13:13;102843.09;;;11.51;43.66
11395;BME280;5753;54.402;10.220;2023-01-28T11:15:49;102832.50;;;10.70;45.32
11395;BME280;5753;54.402;10.220;2023-01-28T11:18:28;102830.75;;;10.69;44.82
11395;BME280;5753;54.402;10.220;2023-01-28T11:21:13;102829.97;;;11.08;43.84
11395;BME280;5753;54.402;10.220;2023-01-28T11:23:51;102830.31;;;10.25;45.77
11395;BME280;5753;54.402;10.220;2023-01-28T11:26:31;102827.31;;;11.64;44.00
11395;BME280;5753;54.402;10.220;2023-01-28T11:28:58;102818.28;;;11.54;43.85
11395;BME280;5753;54.402;10.220;2023-01-28T11:31:26;102831.78;;;11.10;44.63
11395;BME280;5753;54.402;10.220;2023-01-28T11:33:58;102833.63;;;9.56;48.28
11395;BME280;5753;54.402;10.220;2023-01-28T11:36:30;102845.19;;;9.15;48.99
11395;BME280;5753;54.402;10.220;2023-01-28T11:38:59;102840.56;;;9.57;47.94
11395;BME280;5753;54.402;10.220;2023-01-28T11:41:31;102825.72;;;10.90;45.60
11395;BME280;5753;54.402;10.220;2023-01-28T11:43:59;102822.63;;;10.26;46.74
11395;BME280;5753;54.402;10.220;2023-01-28T11:49:52;102815.41;;;8.88;49.05
11395;BME280;5753;54.402;10.220;2023-01-28T12:01:35;102786.47;;;9.73;48.27
11395;BME280;5753;54.402;10.220;2023-01-28T12:04:54;102778.88;;;10.63;46.29
11395;BME280;5753;54.402;10.220;2023-01-28T12:07:29;102784.84;;;9.75;48.74
11395;BME280;5753;54.402;10.220;2023-01-28T12:21:09;102778.44;;;10.19;47.76
11395;BME280;5753;54.402;10.220;2023-01-28T12:33:02;102765.31;;;9.96;47.82
11395;BME280;5753;54.402;10.220;2023-01-28T12:46:16;102776.84;;;11.72;44.53
11395;BME280;5753;54.402;10.220;2023-01-28T12:48:52;102778.88;;;10.63;46.87
11395;BME280;5753;54.402;10.220;2023-01-28T12:54:19;102765.81;;;10.78;46.18
11395;BME280;5753;54.402;10.220;2023-01-28T12:56:54;102776.16;;;9.73;47.61
11395;BME280;5753;54.402;10.220;2023-01-28T12:59:26;102765.91;;;10.99;45.88
11395;BME280;5753;54.402;10.220;2023-01-28T13:12:55;102762.63;;;10.84;46.70
11395;BME280;5753;54.402;10.220;2023-01-28T13:15:22;102774.16;;;10.72;46.55
11395;BME280;5753;54.402;10.220;2023-01-28T13:18:01;102773.19;;;11.67;44.60
11395;BME280;5753;54.402;10.220;2023-01-28T13:20:47;102771.63;;;10.92;45.97
11395;BME280;5753;54.402;10.220;2023-01-28T13:28:48;102762.03;;;10.89;46.51
11395;BME280;5753;54.402;10.220;2023-01-28T13:31:16;102762.19;;;10.37;47.59
11395;BME280;5753;54.402;10.220;2023-01-28T13:33:47;102755.59;;;11.78;44.29
11395;BME280;5753;54.402;10.220;2023-01-28T13:39:03;102749.41;;;11.15;45.81
11395;BME280;5753;54.402;10.220;2023-01-28T13:44:03;102746.13;;;12.20;43.44
11395;BME280;5753;54.402;10.220;2023-01-28T13:46:30;102743.41;;;11.35;45.71
11395;BME280;5753;54.402;10.220;2023-01-28T13:48:58;102725.84;;;10.88;46.41
11395;BME280;5753;54.402;10.220;2023-01-28T13:51:33;102720.53;;;11.43;45.58
11395;BME280;5753;54.402;10.220;2023-01-28T13:54:09;102711.16;;;10.87;46.29
11395;BME280;5753;54.402;10.220;2023-01-28T14:10:40;102729.41;;;10.53;48.29
11395;BME280;5753;54.402;10.220;2023-01-28T14:15:59;102733.63;;;10.70;47.18
11395;BME280;5753;54.402;10.220;2023-01-28T14:18:37;102730.59;;;11.17;46.54
11395;BME280;5753;54.402;10.220;2023-01-28T14:21:20;102729.81;;;9.73;49.24
11395;BME280;5753;54.402;10.220;2023-01-28T14:23:55;102723.50;;;10.37;47.98
11395;BME280;5753;54.402;10.220;2023-01-28T14:26:37;102722.88;;;10.42;48.59
11395;BME280;5753;54.402;10.220;2023-01-28T14:29:13;102729.09;;;10.11;49.07
11395;BME280;5753;54.402;10.220;2023-01-28T14:31:42;102731.81;;;10.87;47.66
11395;BME280;5753;54.402;10.220;2023-01-28T14:36:44;102742.56;;;10.96;47.13
11395;BME280;5753;54.402;10.220;2023-01-28T14:39:23;102750.63;;;9.43;51.08
11395;BME280;5753;54.402;10.220;2023-01-28T14:41:51;102730.97;;;10.49;48.29
11395;BME280;5753;54.402;10.220;2023-01-28T14:44:29;102722.50;;;9.98;50.63
11395;BME280;5753;54.402;10.220;2023-01-28T14:50:09;102707.22;;;10.76;48.26
11395;BME280;5753;54.402;10.220;2023-01-28T14:53:08;102697.00;;;10.40;50.02
11395;BME280;5753;54.402;10.220;2023-01-28T14:55:54;102700.56;;;11.19;47.77
11395;BME280;5753;54.402;10.220;2023-01-28T14:58:32;102702.84;;;11.32;47.88
11395;BME280;5753;54.402;10.220;2023-01-28T15:01:01;102707.06;;;10.90;48.49
11395;BME280;5753;54.402;10.220;2023-01-28T15:03:34;102711.22;;;11.67;47.19
11395;BME280;5753;54.402;10.220;2023-01-28T15:06:04;102722.88;;;11.57;47.34
11395;BME280;5753;54.402;10.220;2023-01-28T15:08:31;102715.94;;;11.16;48.40
11395;BME280;5753;54.402;10.220;2023-01-28T15:10:59;102710.00;;;11.59;47.08
11395;BME280;5753;54.402;10.220;2023-01-28T15:13:29;102719.91;;;10.71;49.03
11395;BME280;5753;54.402;10.220;2023-01-28T15:15:57;102730.75;;;11.01;47.98